Time;durP1;ratioP1;P1;durP2;ratioP2;P2;SDS_P1;SDS_P2;PMS_P1;PMS_P2;Temp;Humidity;BMP_temperature;BMP_pressure;BME280_temperature;BME280_humidity;BME280_pressure;Samples;Min_cycle;Max_cycle;Signal;HPM_P1;HPM_P2
2021/06/25 00:01:41;;;;;;;14.35;6.25;;;;;;;41.53;19.10;94580.50;5115914;28;20050;-68
2021/06/25 00:04:08;;;;;;;12.93;5.78;;;;;;;41.82;18.69;94579.56;5097813;28;20485;-69
2021/06/25 00:06:35;;;;;;;15.88;6.07;;;;;;;42.11;18.56;94575.84;5116381;28;20446;-68
2021/06/25 00:09:03;;;;;;;11.25;5.53;;;;;;;42.03;18.05;94577.50;5098604;28;20040;-68
2021/06/25 00:11:30;;;;;;;12.43;5.57;;;;;;;41.83;18.40;94577.56;5114943;28;20057;-66
2021/06/25 00:13:57;;;;;;;14.98;5.63;;;;;;;41.70;18.55;94585.44;5115751;28;20365;-69
2021/06/25 00:16:24;;;;;;;12.02;5.60;;;;;;;41.80;18.66;94584.78;5098124;28;20043;-69
2021/06/25 00:18:51;;;;;;;14.95;6.00;;;;;;;41.76;18.81;94588.97;5116114;28;20051;-69
2021/06/25 00:21:18;;;;;;;12.05;5.55;;;;;;;41.61;19.07;94593.78;5115661;28;20362;-62
2021/06/25 00:23:45;;;;;;;11.52;5.13;;;;;;;41.79;19.15;94596.25;5101625;28;20044;-71
2021/06/25 00:26:12;;;;;;;12.25;5.57;;;;;;;41.44;19.44;94591.63;5095529;28;20055;-68
2021/06/25 00:28:39;;;;;;;12.27;5.25;;;;;;;41.43;19.55;94595.59;5095261;28;20052;-68
2021/06/25 00:31:07;;;;;;;15.15;6.50;;;;;;;41.49;19.45;94593.66;5109832;28;20048;-66
2021/06/25 00:33:34;;;;;;;11.88;5.55;;;;;;;41.26;19.24;94591.91;5114740;28;20330;-67
2021/06/25 00:36:01;;;;;;;13.95;5.75;;;;;;;41.35;19.01;94594.47;5115739;28;20051;-67
2021/06/25 00:38:28;;;;;;;13.10;5.80;;;;;;;41.49;19.36;94590.16;5115570;28;20369;-69
2021/06/25 00:40:55;;;;;;;15.25;5.35;;;;;;;41.28;19.47;94590.19;5115429;28;20047;-63
2021/06/25 00:43:23;;;;;;;16.33;6.13;;;;;;;41.36;19.65;94590.50;5114639;28;20036;-68
2021/06/25 00:45:50;;;;;;;12.63;5.05;;;;;;;41.58;19.29;94585.28;5097767;28;20051;-68
2021/06/25 00:48:17;;;;;;;12.25;5.45;;;;;;;41.22;19.72;94596.81;5115418;28;20054;-66
2021/06/25 00:50:44;;;;;;;12.77;5.30;;;;;;;41.58;19.45;94585.28;5097282;28;20051;-60
2021/06/25 00:53:12;;;;;;;14.32;5.55;;;;;;;41.50;19.58;94588.94;5079356;28;20055;-69
2021/06/25 00:55:42;;;;;;;10.43;5.40;;;;;;;41.77;19.08;94585.00;5115315;28;20091;-68
2021/06/25 00:58:12;;;;;;;14.85;5.78;;;;;;;41.23;19.50;94582.66;5115256;28;20043;-68
2021/06/25 01:00:40;;;;;;;14.43;5.60;;;;;;;41.35;19.58;94578.03;5097003;28;20504;-67
2021/06/25 01:03:07;;;;;;;13.20;5.80;;;;;;;41.57;19.46;94572.03;5095645;28;20056;-69
2021/06/25 01:05:35;;;;;;;10.95;5.57;;;;;;;41.21;19.73;94576.88;5115602;28;20051;-64
2021/06/25 01:08:02;;;;;;;14.85;5.70;;;;;;;41.01;19.97;94578.84;5115256;28;20044;-66
2021/06/25 01:10:30;;;;;;;14.10;6.30;;;;;;;41.13;19.56;94583.25;5114849;28;20054;-64
2021/06/25 01:12:57;;;;;;;14.68;5.30;;;;;;;41.12;19.61;94578.97;5114693;28;20040;-66
2021/06/25 01:15:24;;;;;;;10.82;5.32;;;;;;;41.25;19.79;94573.94;5115173;28;20448;-66
2021/06/25 01:17:51;;;;;;;13.05;5.80;;;;;;;41.10;19.74;94575.97;5115128;28;20051;-68
2021/06/25 01:20:24;;;;;;;12.05;5.55;;;;;;;41.48;19.31;94586.66;5114813;28;20051;-68
2021/06/25 01:22:51;;;;;;;12.25;5.88;;;;;;;41.59;19.33;94575.06;5114825;28;20050;-68
2021/06/25 01:25:21;;;;;;;13.07;5.43;;;;;;;41.52;19.53;94581.72;5097055;28;20043;-68
2021/06/25 01:27:53;;;;;;;9.93;5.47;;;;;;;41.43;19.65;94578.38;5115094;28;20043;-62
2021/06/25 01:30:24;;;;;;;13.90;5.82;;;;;;;40.89;20.00;94575.97;5114564;28;20565;-66
2021/06/25 01:32:51;;;;;;;;;;;;;;;40.86;20.03;94582.41;5096255;28;20130;-63
2021/06/25 01:35:19;;;;;;;14.75;5.88;;;;;;;40.53;20.61;94582.66;5109727;28;19927;-67
2021/06/25 01:37:47;;;;;;;13.20;5.70;;;;;;;41.11;19.73;94585.69;5094625;28;20043;-68
2021/06/25 01:40:16;;;;;;;14.32;6.00;;;;;;;41.26;19.76;94580.94;5097604;28;20043;-69
2021/06/25 01:42:44;;;;;;;11.43;5.28;;;;;;;40.44;20.41;94591.00;5097325;28;20039;-66
2021/06/25 01:45:14;;;;;;;15.32;5.97;;;;;;;40.80;20.07;94578.81;5097140;28;20043;-68
2021/06/25 01:47:44;;;;;;;12.60;6.05;;;;;;;40.88;20.26;94568.97;5096961;28;20039;-66
2021/06/25 01:50:16;;;;;;;12.75;5.97;;;;;;;40.69;20.25;94570.44;5114474;28;20050;-69
2021/06/25 01:52:48;;;;;;;14.68;5.70;;;;;;;40.80;20.14;94564.34;5114350;28;20055;-67
2021/06/25 01:55:15;;;;;;;13.13;6.00;;;;;;;40.94;20.16;94571.78;5096826;28;20056;-64
2021/06/25 01:57:43;;;;;;;13.43;6.00;;;;;;;40.55;20.60;94563.00;5096784;28;20055;-65
2021/06/25 02:00:11;;;;;;;19.40;5.90;;;;;;;40.77;20.17;94557.81;5114357;28;20047;-67
2021/06/25 02:02:39;;;;;;;23.80;6.80;;;;;;;41.18;19.77;94571.59;5113577;28;20048;-64
2021/06/25 02:05:08;;;;;;;13.48;5.47;;;;;;;40.95;20.27;94563.09;5114970;28;20063;-68
2021/06/25 02:07:36;;;;;;;16.83;5.93;;;;;;;41.05;19.85;94560.94;5114881;28;20054;-65
2021/06/25 02:10:06;;;;;;;14.90;5.63;;;;;;;41.25;19.76;94557.50;5114417;28;20343;-68
2021/06/25 02:12:34;;;;;;;13.52;5.47;;;;;;;41.20;19.77;94569.88;5096483;28;20749;-66
2021/06/25 02:15:06;;;;;;;11.68;5.47;;;;;;;41.06;19.99;94558.97;5100455;28;20047;-66
2021/06/25 02:17:33;;;;;;;16.38;6.00;;;;;;;40.53;20.69;94566.22;5118465;28;20047;-62
2021/06/25 02:20:00;;;;;;;14.45;5.35;;;;;;;40.49;20.70;94567.66;5118118;28;20043;-65
2021/06/25 02:22:27;;;;;;;13.88;5.97;;;;;;;40.28;20.68;94567.56;5117805;28;20040;-65
2021/06/25 02:24:54;;;;;;;15.68;5.90;;;;;;;40.54;20.50;94566.97;5118300;28;20385;-67
2021/06/25 02:27:21;;;;;;;10.75;5.53;;;;;;;40.54;20.27;94572.44;5118269;28;20048;-68
2021/06/25 02:29:48;;;;;;;15.65;5.40;;;;;;;40.60;20.37;94571.31;5100245;28;20047;-67
2021/06/25 02:32:16;;;;;;;12.40;6.43;;;;;;;40.31;20.60;94566.59;5117020;28;20054;-65
2021/06/25 02:34:43;;;;;;;11.73;5.60;;;;;;;40.70;20.44;94563.72;5117135;28;20047;-64
2021/06/25 02:37:11;;;;;;;15.35;6.68;;;;;;;40.75;20.49;94565.78;5118066;28;20055;-69
2021/06/25 02:39:38;;;;;;;12.20;5.70;;;;;;;40.27;20.73;94557.84;5117980;28;20046;-68
2021/06/25 02:42:05;;;;;;;13.98;5.63;;;;;;;40.52;20.62;94553.00;5114223;28;20043;-65
2021/06/25 02:44:33;;;;;;;10.93;5.72;;;;;;;40.67;20.29;94550.97;5117704;28;20438;-67
2021/06/25 02:47:01;;;;;;;14.30;5.63;;;;;;;40.91;20.32;94550.81;5116788;28;20442;-68
2021/06/25 02:49:28;;;;;;;11.23;6.03;;;;;;;40.45;20.51;94556.13;5117539;28;20361;-68
2021/06/25 02:51:55;;;;;;;16.65;6.55;;;;;;;40.26;20.79;94559.06;5099193;28;20343;-67
2021/06/25 02:54:22;;;;;;;14.25;6.32;;;;;;;40.44;20.77;94552.66;5117493;28;20044;-69
2021/06/25 02:56:49;;;;;;;15.07;6.05;;;;;;;40.75;20.41;94571.25;5117561;28;20055;-63
2021/06/25 02:59:17;;;;;;;14.95;5.78;;;;;;;40.68;20.50;94564.19;5117426;28;20072;-69
2021/06/25 03:01:44;;;;;;;14.20;6.07;;;;;;;40.85;20.41;94574.63;5117112;28;20051;-68
2021/06/25 03:04:11;;;;;;;19.77;6.10;;;;;;;40.99;20.30;94560.13;5116846;28;20066;-67
2021/06/25 03:06:38;;;;;;;13.70;5.72;;;;;;;40.83;20.34;94563.41;5117206;28;20055;-68
2021/06/25 03:09:05;;;;;;;14.55;6.00;;;;;;;41.00;20.10;94563.63;5116181;28;20048;-67
2021/06/25 03:11:32;;;;;;;13.95;6.45;;;;;;;41.04;20.17;94564.19;5116915;28;20043;-68
2021/06/25 03:13:59;;;;;;;12.68;6.20;;;;;;;40.61;20.65;94572.06;5117257;28;20051;-69
2021/06/25 03:16:26;;;;;;;14.80;6.75;;;;;;;40.06;21.37;94578.16;5117567;28;20055;-66
2021/06/25 03:18:53;;;;;;;18.15;6.32;;;;;;;39.86;21.69;94591.72;5114280;28;20059;-67
2021/06/25 03:21:21;;;;;;;16.30;6.53;;;;;;;39.43;21.97;94588.41;5096351;28;20044;-69
2021/06/25 03:23:48;;;;;;;15.48;6.43;;;;;;;40.08;21.05;94589.41;5099039;28;20358;-67
2021/06/25 03:26:15;;;;;;;20.50;7.30;;;;;;;40.51;20.91;94584.34;5087002;28;20047;-67
2021/06/25 03:28:42;;;;;;;17.02;6.43;;;;;;;39.69;21.79;94589.44;5106965;28;20050;-68
2021/06/25 03:31:09;;;;;;;12.73;7.25;;;;;;;40.04;21.20;94584.09;5098811;28;20054;-68
2021/06/25 03:33:36;;;;;;;20.10;7.60;;;;;;;40.07;21.22;94594.09;5097940;28;20074;-63
2021/06/25 03:36:04;;;;;;;14.43;6.82;;;;;;;40.58;20.85;94594.91;5116862;28;20055;-68
2021/06/25 03:38:32;;;;;;;14.35;6.68;;;;;;;40.53;20.77;94587.38;5116497;28;20044;-68
2021/06/25 03:40:59;;;;;;;14.90;6.53;;;;;;;40.52;20.90;94585.88;5096848;28;20047;-68
2021/06/25 03:43:26;;;;;;;16.50;6.38;;;;;;;40.88;20.35;94585.44;5091403;28;20036;-69
2021/06/25 03:45:55;;;;;;;18.23;6.97;;;;;;;40.79;20.61;94582.75;5096287;28;20052;-68
2021/06/25 03:48:22;;;;;;;15.60;6.50;;;;;;;41.03;20.46;94574.38;5103216;28;20046;-68
2021/06/25 03:50:49;;;;;;;20.52;7.03;;;;;;;41.04;20.78;94580.63;5116486;28;20051;-68
2021/06/25 03:53:16;;;;;;;14.75;6.63;;;;;;;41.07;20.67;94585.16;5116081;28;20358;-69
2021/06/25 03:58:32;;;;;;;13.95;6.40;;;;;;;40.67;21.15;94579.13;5116166;28;20047;-69
2021/06/25 04:00:59;;;;;;;13.85;7.18;;;;;;;40.60;21.34;94582.28;5116368;28;20048;-67
2021/06/25 04:03:26;;;;;;;14.90;7.13;;;;;;;40.84;20.88;94587.59;5115220;28;20052;-69
2021/06/25 04:05:53;;;;;;;16.80;6.93;;;;;;;40.90;20.88;94590.44;5116295;28;20051;-67
2021/06/25 04:08:20;;;;;;;18.30;6.80;;;;;;;40.48;21.46;94591.53;5115899;28;20054;-62
2021/06/25 04:10:47;;;;;;;17.67;6.93;;;;;;;40.60;21.13;94587.75;5115701;28;20323;-68
2021/06/25 04:13:14;;;;;;;14.73;6.55;;;;;;;40.77;21.02;94579.75;5115648;28;20050;-68
2021/06/25 04:15:42;;;;;;;13.93;6.95;;;;;;;40.63;21.21;94586.03;5116120;28;20393;-65
2021/06/25 04:18:09;;;;;;;17.48;7.32;;;;;;;40.88;20.77;94587.41;5115798;28;20051;-68
2021/06/25 04:20:36;;;;;;;16.63;7.30;;;;;;;40.61;21.18;94592.00;5115945;28;20470;-69
2021/06/25 04:23:03;;;;;;;17.05;6.75;;;;;;;41.09;20.71;94588.91;5097602;28;20477;-69
2021/06/25 04:25:30;;;;;;;17.88;6.68;;;;;;;40.51;21.44;94590.59;5115869;28;20354;-69
2021/06/25 04:27:58;;;;;;;16.65;7.45;;;;;;;41.31;20.49;94577.50;5097586;28;20047;-68
2021/06/25 04:30:25;;;;;;;18.20;7.18;;;;;;;40.93;21.21;94582.00;5106763;28;20048;-68
2021/06/25 04:32:53;;;;;;;14.55;6.88;;;;;;;41.15;20.82;94583.53;5096730;28;20082;-68
2021/06/25 04:35:20;;;;;;;16.10;7.40;;;;;;;41.14;20.72;94571.03;5115588;28;20043;-67
2021/06/25 04:37:47;;;;;;;16.40;6.78;;;;;;;41.05;20.97;94577.41;5114533;28;20085;-64
2021/06/25 04:40:14;;;;;;;16.85;7.03;;;;;;;41.22;20.30;94563.91;5115648;28;20040;-62
2021/06/25 04:42:45;;;;;;;17.05;7.20;;;;;;;41.17;20.48;94567.34;5115114;28;20047;-67
2021/06/25 04:45:14;;;;;;;13.52;7.13;;;;;;;40.98;20.90;94567.59;5097699;28;20047;-68
2021/06/25 04:47:42;;;;;;;13.95;6.20;;;;;;;41.24;20.71;94572.44;5115491;28;20047;-69
2021/06/25 04:50:10;;;;;;;13.40;7.18;;;;;;;41.26;21.15;94576.19;5114460;28;20044;-66
2021/06/25 04:52:38;;;;;;;12.82;6.80;;;;;;;41.45;20.75;94565.69;5094950;28;20122;-61
2021/06/25 04:55:07;;;;;;;16.08;7.03;;;;;;;41.61;20.69;94563.59;5115039;28;20036;-65
2021/06/25 04:57:34;;;;;;;16.25;6.80;;;;;;;41.77;20.72;94574.03;5115437;28;20048;-68
2021/06/25 05:00:02;;;;;;;16.20;7.10;;;;;;;41.02;21.36;94583.09;5098571;28;20048;-69
2021/06/25 05:02:30;;;;;;;15.77;6.47;;;;;;;41.58;20.55;94579.78;5094835;28;20058;-64
2021/06/25 05:04:57;;;;;;;16.67;7.20;;;;;;;41.70;20.23;94593.66;5115098;28;20513;-66
2021/06/25 05:07:24;;;;;;;13.23;6.68;;;;;;;41.41;20.49;94589.84;5115419;28;20051;-68
2021/06/25 05:09:51;;;;;;;17.35;7.53;;;;;;;41.61;20.51;94589.03;5114887;28;20474;-68
2021/06/25 05:12:18;;;;;;;14.68;7.20;;;;;;;41.69;20.48;94590.16;5114971;28;20461;-68
2021/06/25 05:14:45;;;;;;;13.00;6.70;;;;;;;41.80;20.01;94579.28;5113460;28;20374;-59
2021/06/25 05:17:12;;;;;;;15.60;6.35;;;;;;;41.62;20.85;94573.31;5115215;28;20058;-65
2021/06/25 05:19:39;;;;;;;13.82;6.63;;;;;;;41.79;20.39;94571.53;5115116;28;20051;-67
2021/06/25 05:22:06;;;;;;;17.65;6.75;;;;;;;41.87;20.58;94578.09;5115271;28;20052;-68
2021/06/25 05:24:34;;;;;;;18.63;6.88;;;;;;;42.10;20.15;94579.06;5114573;28;20035;-61
2021/06/25 05:27:02;;;;;;;17.10;7.35;;;;;;;41.85;20.40;94575.09;5097114;28;20054;-68
2021/06/25 05:29:29;;;;;;;14.43;6.35;;;;;;;41.83;20.12;94572.06;5114775;28;20054;-67
2021/06/25 05:31:57;;;;;;;14.23;7.32;;;;;;;42.02;19.99;94567.75;5114911;28;20043;-67
2021/06/25 05:34:27;;;;;;;16.80;7.60;;;;;;;41.97;20.13;94571.22;5113909;28;20469;-69
2021/06/25 05:36:55;;;;;;;16.48;6.88;;;;;;;42.31;19.96;94571.50;5113495;28;20052;-69
2021/06/25 05:39:23;;;;;;;14.55;6.80;;;;;;;42.11;20.26;94564.84;5109180;28;20129;-68
2021/06/25 05:41:51;;;;;;;18.25;7.50;;;;;;;42.31;19.99;94571.50;5114874;28;20366;-69
2021/06/25 05:44:18;;;;;;;18.02;7.22;;;;;;;42.06;20.17;94584.03;5114458;28;20043;-68
2021/06/25 05:46:45;;;;;;;15.02;7.28;;;;;;;42.31;20.07;94582.50;5115095;28;20044;-68
2021/06/25 05:49:12;;;;;;;16.23;8.10;;;;;;;42.60;19.80;94582.22;5117782;28;20047;-69
2021/06/25 05:51:39;;;;;;;16.73;7.55;;;;;;;42.45;19.75;94584.34;5118795;28;20051;-70
2021/06/25 05:54:06;;;;;;;18.85;8.77;;;;;;;42.54;20.14;94578.69;5118613;28;20446;-69
2021/06/25 05:56:33;;;;;;;18.17;8.07;;;;;;;42.66;19.93;94580.25;5118625;28;20058;-69
2021/06/25 05:59:00;;;;;;;15.88;7.63;;;;;;;42.58;19.86;94573.72;5118370;28;20458;-70
2021/06/25 06:01:29;;;;;;;16.48;7.90;;;;;;;42.42;20.12;94588.06;5100611;28;20039;-69
2021/06/25 06:03:57;;;;;;;17.63;8.07;;;;;;;42.71;20.10;94587.81;5117727;28;20051;-68
2021/06/25 06:06:24;;;;;;;17.00;8.30;;;;;;;42.77;19.83;94580.34;5118583;28;20052;-69
2021/06/25 06:08:51;;;;;;;20.95;9.35;;;;;;;42.53;19.89;94588.19;5100253;28;20056;-69
2021/06/25 06:11:18;;;;;;;19.00;8.95;;;;;;;42.65;19.96;94584.25;5118496;28;20051;-68
2021/06/25 06:13:46;;;;;;;17.42;8.73;;;;;;;42.94;19.79;94579.69;5118492;28;20043;-68
2021/06/25 06:16:15;;;;;;;16.73;8.80;;;;;;;43.20;20.07;94585.81;5118735;28;20058;-69
2021/06/25 06:18:47;;;;;;;17.60;8.17;;;;;;;43.29;19.87;94593.16;5109559;28;20043;-61
2021/06/25 06:21:21;;;;;;;16.55;7.95;;;;;;;43.59;20.05;94582.47;5099814;28;20611;-69
2021/06/25 06:32:19;;;;;;;16.88;8.15;;;;;;;43.87;19.29;94566.78;5096530;28;20048;-69
2021/06/25 06:34:47;;;;;;;16.48;6.97;;;;;;;43.95;19.12;94567.78;5116544;28;20366;-68
2021/06/25 06:37:20;;;;;;;20.27;7.47;;;;;;;43.75;19.18;94570.78;5118071;28;20055;-69
2021/06/25 06:39:47;;;;;;;18.38;7.28;;;;;;;44.04;18.72;94577.06;5117769;28;20062;-69
2021/06/25 06:42:14;;;;;;;17.70;7.72;;;;;;;44.17;19.37;94574.59;5117899;28;20052;-69
2021/06/25 06:44:43;;;;;;;16.27;7.70;;;;;;;44.34;18.90;94580.84;5117557;28;20355;-68
2021/06/25 06:47:10;;;;;;;15.15;7.15;;;;;;;44.28;18.50;94577.34;5117896;28;20054;-69
2021/06/25 06:49:37;;;;;;;15.90;7.80;;;;;;;44.54;18.38;94572.34;5117500;28;20048;-69
2021/06/25 06:52:06;;;;;;;17.38;8.15;;;;;;;44.56;18.44;94564.34;5100029;28;20051;-69
2021/06/25 06:54:33;;;;;;;17.90;7.25;;;;;;;44.61;18.72;94573.09;5102156;28;20043;-69
2021/06/25 06:57:00;;;;;;;15.15;7.57;;;;;;;44.77;18.47;94572.31;5117653;28;20047;-70
2021/06/25 06:59:27;;;;;;;20.55;8.73;;;;;;;44.81;18.03;94572.81;5116408;28;20047;-63
2021/06/25 07:01:54;;;;;;;20.33;8.45;;;;;;;44.85;18.23;94567.78;5117403;28;20043;-68
2021/06/25 07:04:21;;;;;;;14.65;7.55;;;;;;;44.92;18.26;94572.03;5128213;27;20052;-70
2021/06/25 07:06:48;;;;;;;15.63;8.18;;;;;;;44.86;18.34;94580.31;5117561;28;20055;-65
2021/06/25 07:09:18;;;;;;;18.20;8.20;;;;;;;45.04;18.22;94568.75;5099489;28;20074;-69
2021/06/25 07:11:45;;;;;;;21.42;7.95;;;;;;;45.35;17.93;94573.16;5104180;28;20055;-69
2021/06/25 07:14:12;;;;;;;12.80;8.00;;;;;;;45.30;18.34;94571.19;5098274;28;20051;-70
2021/06/25 07:16:39;;;;;;;17.98;7.95;;;;;;;45.44;18.45;94572.09;5117190;28;20056;-70
2021/06/25 07:19:06;;;;;;;17.45;7.93;;;;;;;45.46;18.68;94570.31;5117100;28;20043;-67
2021/06/25 07:21:33;;;;;;;17.77;7.57;;;;;;;45.42;18.23;94575.38;5117075;28;20047;-69
2021/06/25 07:24:02;;;;;;;13.77;7.88;;;;;;;45.46;17.89;94569.56;5117138;28;20552;-66
2021/06/25 07:26:31;;;;;;;17.95;7.55;;;;;;;45.53;18.45;94574.56;5116987;28;20492;-69
2021/06/25 07:28:58;;;;;;;20.23;8.35;;;;;;;45.57;18.42;94575.06;5116788;28;20047;-68
2021/06/25 07:31:26;;;;;;;15.68;7.03;;;;;;;45.75;18.18;94568.94;5116869;28;20055;-67
2021/06/25 07:33:53;;;;;;;18.08;7.85;;;;;;;45.69;17.70;94565.47;5116289;28;20362;-69
2021/06/25 07:36:20;;;;;;;16.23;7.55;;;;;;;45.63;17.59;94567.50;5098610;28;20047;-68
2021/06/25 07:38:47;;;;;;;15.35;7.80;;;;;;;45.69;18.12;94559.94;5116623;28;20048;-62
2021/06/25 07:41:14;;;;;;;20.13;8.63;;;;;;;45.92;18.15;94570.84;5116501;28;20118;-69
2021/06/25 07:43:41;;;;;;;19.95;7.60;;;;;;;45.99;18.03;94564.75;5102759;28;20048;-66
2021/06/25 07:46:09;;;;;;;16.70;7.40;;;;;;;46.22;17.40;94557.81;5113206;28;20046;-68
2021/06/25 07:48:36;;;;;;;15.88;7.43;;;;;;;46.24;17.43;94557.31;5116220;28;20044;-68
2021/06/25 07:51:03;;;;;;;17.10;8.00;;;;;;;46.22;17.27;94555.06;5115698;28;20051;-70
2021/06/25 07:53:30;;;;;;;19.92;7.68;;;;;;;46.19;17.88;94549.81;5098644;28;20055;-68
2021/06/25 07:55:57;;;;;;;13.90;7.68;;;;;;;46.23;17.51;94556.56;5116205;28;20043;-66
2021/06/25 07:58:25;;;;;;;12.65;6.78;;;;;;;46.43;17.58;94554.66;5116449;28;20392;-69
2021/06/25 08:00:52;;;;;;;14.95;7.45;;;;;;;46.19;17.58;94555.34;5116083;28;20051;-71
2021/06/25 08:03:19;;;;;;;19.20;8.00;;;;;;;46.29;17.70;94554.47;5115742;28;20051;-68
2021/06/25 08:05:46;;;;;;;14.48;7.20;;;;;;;46.32;17.69;94547.91;5116039;28;20055;-68
2021/06/25 08:08:13;;;;;;;14.82;7.28;;;;;;;46.29;17.38;94548.97;5116278;28;20044;-65
2021/06/25 08:10:40;;;;;;;22.10;7.53;;;;;;;46.44;17.64;94553.38;5108167;28;20051;-68
2021/06/25 08:13:08;;;;;;;17.33;8.40;;;;;;;46.50;17.38;94551.31;5095897;28;20048;-68
2021/06/25 08:15:36;;;;;;;15.73;6.88;;;;;;;46.67;17.48;94546.38;5106838;28;20381;-68
2021/06/25 08:18:03;;;;;;;17.50;7.85;;;;;;;46.62;17.44;94553.47;5116024;28;20051;-69
2021/06/25 08:20:30;;;;;;;16.27;7.50;;;;;;;46.66;17.09;94547.63;5115724;28;20106;-68
2021/06/25 08:22:58;;;;;;;17.02;7.40;;;;;;;46.76;17.88;94545.28;5115842;28;20385;-66
2021/06/25 08:25:26;;;;;;;15.57;7.47;;;;;;;47.23;17.22;94556.84;5115741;28;20050;-68
2021/06/25 08:27:55;;;;;;;16.88;7.15;;;;;;;46.89;16.86;94554.47;5115895;28;20047;-69
2021/06/25 08:30:25;;;;;;;17.08;7.15;;;;;;;46.74;16.54;94554.09;5115487;28;20465;-69
2021/06/25 08:32:53;;;;;;;16.25;6.97;;;;;;;47.11;16.21;94555.44;5115139;28;20046;-69
2021/06/25 08:35:21;;;;;;;14.82;7.00;;;;;;;46.93;16.07;94548.63;5115559;28;20046;-70
2021/06/25 08:37:49;;;;;;;20.00;7.80;;;;;;;46.51;15.38;94541.75;5097821;28;20474;-69
2021/06/25 08:40:17;;;;;;;12.13;6.55;;;;;;;46.77;15.92;94546.78;5115468;28;20065;-70
2021/06/25 08:42:44;;;;;;;15.10;6.82;;;;;;;47.20;15.95;94549.59;5107422;28;20366;-68
2021/06/25 08:45:12;;;;;;;18.95;6.93;;;;;;;47.09;15.98;94549.69;5102040;28;20046;-69
2021/06/25 08:47:51;;;;;;;17.08;7.22;;;;;;;46.95;15.59;94546.09;5115625;28;20058;-69
2021/06/25 08:50:22;;;;;;;15.05;6.55;;;;;;;47.07;14.97;94549.47;5115317;28;20047;-70
2021/06/25 08:52:54;;;;;;;15.57;6.32;;;;;;;47.23;14.18;94548.53;5115357;28;20477;-68
2021/06/25 08:55:22;;;;;;;14.07;6.47;;;;;;;47.16;14.16;94549.16;5115063;28;20040;-68
2021/06/25 08:57:49;;;;;;;15.18;5.90;;;;;;;47.37;14.09;94544.59;5115430;28;20054;-67
2021/06/25 09:00:18;;;;;;;14.10;6.20;;;;;;;47.16;13.79;94543.59;5115043;28;20043;-69
2021/06/25 09:02:46;;;;;;;18.25;6.13;;;;;;;47.32;14.18;94534.31;5114543;28;20062;-68
2021/06/25 09:05:22;;;;;;;20.38;6.32;;;;;;;47.22;13.58;94545.03;5115007;28;20370;-67
2021/06/25 09:07:49;;;;;;;14.15;5.82;;;;;;;47.42;13.10;94543.03;5115551;28;20358;-68
2021/06/25 09:10:32;;;;;;;16.27;6.40;;;;;;;47.43;13.86;94530.69;5114882;28;20051;-70
2021/06/25 09:13:04;;;;;;;16.45;6.15;;;;;;;47.64;13.16;94542.75;5097435;28;20043;-69
2021/06/25 09:15:31;;;;;;;20.95;6.97;;;;;;;47.60;13.56;94536.72;5114196;28;20100;-68
2021/06/25 09:18:05;;;;;;;19.73;6.70;;;;;;;47.86;13.27;94541.66;5081187;28;20051;-68
2021/06/25 09:20:52;;;;;;;21.13;6.32;;;;;;;47.54;13.20;94539.59;5109275;28;20050;-68
2021/06/25 09:23:31;;;;;;;17.60;6.68;;;;;;;47.77;12.98;94536.50;5114550;28;20059;-68
2021/06/25 09:25:59;;;;;;;16.23;6.10;;;;;;;47.76;13.43;94532.97;5096706;28;20103;-69
2021/06/25 09:28:34;;;;;;;22.45;6.95;;;;;;;47.82;12.38;94535.66;5114979;28;20047;-69
2021/06/25 09:31:06;;;;;;;21.20;6.03;;;;;;;47.71;13.18;94524.75;5114568;28;20384;-65
2021/06/25 09:33:33;;;;;;;16.50;5.85;;;;;;;47.93;13.66;94537.56;5096206;28;20055;-69
2021/06/25 09:36:00;;;;;;;16.80;6.18;;;;;;;47.88;13.41;94522.50;5096640;28;20050;-69
2021/06/25 09:38:37;;;;;;;18.52;6.00;;;;;;;47.57;13.43;94527.47;5096817;28;20465;-68
2021/06/25 09:41:21;;;;;;;14.27;5.95;;;;;;;47.67;13.66;94533.38;5114432;28;20453;-70
2021/06/25 09:43:55;;;;;;;15.40;5.43;;;;;;;47.51;13.39;94523.28;5096127;28;20358;-68
2021/06/25 09:46:30;;;;;;;17.67;6.40;;;;;;;47.70;13.96;94532.31;5114556;28;20043;-68
2021/06/25 09:49:03;;;;;;;15.65;5.50;;;;;;;47.64;13.50;94530.91;5114564;28;20054;-69
2021/06/25 09:51:31;;;;;;;18.92;5.85;;;;;;;47.81;12.65;94523.09;5114709;28;20051;-68
2021/06/25 09:54:24;;;;;;;18.50;5.65;;;;;;;47.85;13.41;94518.75;5114765;28;20062;-68
2021/06/25 10:02:23;;;;;;;22.92;5.82;;;;;;;47.97;12.44;94511.03;5114521;28;20043;-69
2021/06/25 10:04:57;;;;;;;14.68;5.45;;;;;;;48.00;12.56;94514.75;5113848;28;20043;-67
2021/06/25 10:07:30;;;;;;;19.65;5.78;;;;;;;47.78;13.14;94510.31;5114634;28;20051;-68
2021/06/25 10:10:07;;;;;;;12.43;5.43;;;;;;;47.52;13.01;94508.16;5114399;28;20047;-69
2021/06/25 10:12:41;;;;;;;22.13;5.82;;;;;;;47.48;13.13;94507.69;5114443;28;20046;-68
2021/06/25 10:15:09;;;;;;;16.55;5.55;;;;;;;47.59;13.06;94508.31;5096243;28;20047;-69
2021/06/25 10:17:36;;;;;;;19.15;5.10;;;;;;;47.82;12.39;94496.88;5114546;28;20048;-68
2021/06/25 10:20:08;;;;;;;15.98;5.43;;;;;;;47.38;13.21;94501.81;5096400;28;20441;-69
2021/06/25 10:22:36;;;;;;;12.52;4.82;;;;;;;47.36;13.15;94501.56;5096307;28;20055;-72
2021/06/25 10:25:06;;;;;;;20.25;5.85;;;;;;;47.33;12.96;94501.88;5113949;28;20051;-67
2021/06/25 10:27:34;;;;;;;17.52;5.55;;;;;;;47.64;12.32;94497.69;5113539;28;20044;-69
2021/06/25 10:30:03;;;;;;;13.30;4.80;;;;;;;47.49;12.97;94481.53;5114266;28;20052;-68
2021/06/25 10:32:38;;;;;;;15.25;5.15;;;;;;;47.51;13.54;94490.81;5113832;28;20048;-69
2021/06/25 10:35:13;;;;;;;18.73;5.97;;;;;;;47.41;12.44;94478.63;5114337;28;20062;-68
2021/06/25 10:37:45;;;;;;;18.45;5.50;;;;;;;47.34;12.60;94479.19;5099794;28;20059;-66
2021/06/25 10:40:28;;;;;;;25.02;6.18;;;;;;;47.30;12.55;94481.53;5102179;28;20047;-70
2021/06/25 10:42:57;;;;;;;13.80;5.60;;;;;;;47.30;12.26;94471.22;5117607;28;20051;-66
2021/06/25 10:45:44;;;;;;;18.02;5.68;;;;;;;47.35;12.38;94482.72;5096143;28;20055;-69
2021/06/25 10:48:11;;;;;;;16.02;5.50;;;;;;;47.26;12.61;94475.56;5079697;28;20048;-69
2021/06/25 10:50:38;;;;;;;14.52;4.88;;;;;;;47.40;12.33;94479.88;5079469;28;20467;-68
2021/06/25 10:53:09;;;;;;;19.67;5.93;;;;;;;47.43;11.85;94467.75;5096390;28;20052;-68
2021/06/25 10:55:44;;;;;;;22.13;6.10;;;;;;;47.44;11.84;94469.25;5103361;28;20050;-68
2021/06/25 10:58:20;;;;;;;15.93;5.50;;;;;;;47.63;12.41;94462.94;5117716;28;20050;-66
2021/06/25 11:00:52;;;;;;;19.13;5.72;;;;;;;47.39;12.49;94459.03;5099572;28;20043;-68
2021/06/25 11:03:42;;;;;;;17.05;4.97;;;;;;;47.47;12.48;94467.47;5116842;28;20056;-68
2021/06/25 11:06:35;;;;;;;19.77;6.38;;;;;;;47.42;11.68;94460.00;5117076;28;20048;-68
2021/06/25 11:09:08;;;;;;;20.38;5.97;;;;;;;47.26;12.52;94458.94;5117418;28;20044;-69
2021/06/25 11:11:36;;;;;;;18.77;5.97;;;;;;;47.07;12.67;94458.16;5117302;28;20058;-68
2021/06/25 11:14:03;;;;;;;18.13;6.03;;;;;;;47.10;12.44;94457.13;5117319;28;20051;-68
2021/06/25 11:16:30;;;;;;;15.75;5.55;;;;;;;46.94;12.51;94456.84;5116601;28;20043;-62
2021/06/25 11:18:59;;;;;;;17.25;6.03;;;;;;;47.16;11.75;94455.81;5117270;28;20054;-68
2021/06/25 11:21:43;;;;;;;19.00;5.88;;;;;;;47.21;11.71;94451.47;5116793;28;20362;-66
2021/06/25 11:24:11;;;;;;;15.55;5.20;;;;;;;47.11;12.14;94455.84;5099379;28;20051;-68
2021/06/25 11:26:54;;;;;;;20.85;5.57;;;;;;;47.14;11.99;94452.84;5116584;28;20429;-68
2021/06/25 11:29:21;;;;;;;15.50;4.80;;;;;;;46.96;11.97;94454.28;5099044;28;20074;-67
2021/06/25 11:32:09;;;;;;;18.45;6.25;;;;;;;47.35;11.87;94466.13;5099657;28;20039;-66
2021/06/25 11:34:37;;;;;;;21.90;6.03;;;;;;;47.29;11.51;94453.09;5098273;28;20130;-69
2021/06/25 11:37:04;;;;;;;21.85;6.00;;;;;;;47.42;11.05;94455.19;5098627;28;20054;-69
2021/06/25 11:39:37;;;;;;;21.85;6.03;;;;;;;47.38;10.36;94463.06;5116824;28;20051;-68
2021/06/25 11:42:26;;;;;;;23.48;5.95;;;;;;;47.30;10.58;94448.31;5116834;28;20082;-68
2021/06/25 11:44:53;;;;;;;19.33;6.28;;;;;;;47.37;10.44;94464.34;5116400;28;20350;-68
2021/06/25 11:47:27;;;;;;;24.02;5.30;;;;;;;47.29;9.36;94457.91;5115787;28;20051;-68
2021/06/25 11:52:25;;;;;;;22.90;6.03;;;;;;;47.49;9.64;94449.06;5099039;28;20047;-62
2021/06/25 11:55:01;;;;;;;16.00;5.80;;;;;;;47.06;9.64;94448.38;5116373;28;20292;-68